Date,TemperatureHighF,TemperatureAvgF,TemperatureLowF,DewpointHighF,DewpointAvgF,DewpointLowF,HumidityHigh,HumidityAvg,HumidityLow,PressureMaxIn,PressureMinIn,WindSpeedMaxMPH,WindSpeedAvgMPH,GustSpeedMaxMPH,PrecipitationSumIn
2012-1-1,66.0,50.1,36.0,57.1,40.8,27.0,96,74,35,30.10,29.88,21,3,26,0.00
2012-1-2,47.6,40.2,29.5,29.7,15.9,7.8,79,40,23,30.06,29.92,22,6,32,0.00
2012-1-3,38.9,36.8,24.4,11.6,9.3,7.7,57,32,29,30.32,29.99,12,10,13,0.00
2012-1-4,48.4,33.4,19.5,19.5,13.3,6.9,76,48,19,30.34,30.07,11,2,15,0.00
2012-1-5,59.6,44.2,28.2,32.0,27.2,19.5,92,54,29,30.12,30.02,13,2,15,0.00
2012-1-6,66.3,50.7,33.5,33.3,29.3,26.1,82,46,25,30.07,29.94,8,2,15,0.00
2012-1-7,67.6,52.3,46.0,52.8,40.2,31.8,77,64,51,29.99,29.94,11,2,14,0.00
2012-1-10,55.2,53.5,52.4,51.1,50.6,50.0,93,90,85,29.96,29.90,4,1,6,0.00
2012-1-11,61.6,53.4,48.6,59.1,50.8,44.0,99,91,66,29.90,29.42,16,5,28,0.64
2012-1-12,57.2,49.1,32.0,49.1,42.2,15.4,90,78,48,29.73,29.50,24,6,32,0.01
2012-1-13,39.5,32.2,26.3,21.2,18.2,14.7,69,56,43,30.08,29.75,17,5,24,0.00
2012-1-14,49.2,34.7,20.1,23.0,20.1,14.8,92,59,33,30.21,30.07,15,2,18,0.00
2012-1-15,51.9,39.1,28.3,28.5,24.9,21.5,84,59,32,30.46,30.06,14,2,18,0.00
2012-1-16,48.5,38.6,29.2,36.4,30.0,22.4,85,72,55,30.54,30.32,9,1,10,0.00
2012-1-17,56.2,48.4,38.3,53.1,44.2,33.3,98,86,73,30.31,29.87,15,2,17,1.00
2012-1-18,54.5,45.6,37.1,53.9,32.5,21.7,98,63,32,30.05,29.85,13,3,17,0.04
2012-1-19,46.6,37.0,30.2,31.3,26.2,22.0,87,66,49,30.19,30.04,13,2,13,0.00
2012-1-20,48.9,42.5,31.5,44.3,37.3,28.0,98,83,59,30.10,30.01,12,1,12,0.52
2012-1-21,54.2,48.1,42.7,53.8,47.7,42.2,99,99,98,30.03,29.82,14,1,14,1.03
2012-1-22,49.9,42.8,37.7,49.6,40.6,35.6,99,92,86,30.27,30.03,21,6,21,0.00
2012-1-23,44.5,39.0,36.4,44.2,38.5,35.8,99,98,93,30.22,30.00,19,3,19,0.43
2012-1-24,63.0,49.3,43.5,50.6,45.1,36.4,99,87,56,30.19,29.99,7,1,9,0.01
2012-1-25,63.9,51.9,37.2,46.3,38.8,32.8,85,62,43,30.28,30.12,13,2,15,0.00
2012-1-26,62.2,55.2,50.9,60.1,51.0,44.6,98,86,72,30.12,29.65,15,1,22,0.05
2012-1-27,63.0,56.3,38.7,59.9,46.3,32.1,94,73,35,29.99,29.58,20,4,26,0.06
2012-1-28,64.5,47.3,34.2,41.1,35.4,22.2,95,67,39,30.20,29.98,15,2,17,0.00
2012-1-29,54.4,42.9,26.2,27.6,15.4,4.2,83,36,14,30.36,30.20,13,3,17,0.00
2012-1-30,60.8,45.6,30.1,27.9,21.2,15.4,74,40,20,30.40,30.27,11,2,14,0.00
2012-1-31,63.6,49.3,35.7,34.6,27.1,22.2,74,44,25,30.37,30.24,12,2,17,0.00
2012-2-1,64.7,51.8,39.3,51.6,43.8,34.0,96,75,56,30.24,30.03,12,1,17,0.03
2012-2-2,69.3,58.2,52.0,54.9,45.5,32.8,97,68,28,30.24,29.97,10,3,17,0.00
2012-2-3,59.5,50.3,42.9,38.9,33.8,29.6,77,54,35,30.43,30.24,17,3,17,0.00
2012-2-4,54.5,49.0,45.9,50.1,42.6,35.2,93,79,60,30.31,29.99,10,1,10,0.02
2012-2-5,71.3,57.6,46.3,57.8,51.3,42.8,99,82,50,30.13,29.91,20,5,21,0.52
2012-2-6,47.4,42.2,35.5,42.9,37.1,34.2,96,82,72,30.23,30.11,16,4,19,0.00
2012-2-7,58.0,44.6,32.8,40.7,36.6,32.3,98,77,44,30.17,30.07,6,1,12,0.00
2012-2-8,58.4,46.6,38.2,41.5,36.5,32.2,92,70,44,30.14,30.03,8,1,17,0.00
2012-2-9,51.4,42.9,29.9,34.9,32.0,28.4,95,66,48,30.26,30.12,11,2,16,0.00
2012-2-10,51.2,42.1,31.6,39.1,35.3,30.1,95,78,56,30.15,29.83,11,1,11,0.00
2012-2-11,46.0,36.3,22.6,36.2,20.9,2.8,91,56,31,30.18,29.75,25,6,30,0.00
2012-2-12,42.4,29.9,20.4,14.3,8.7,3.3,58,42,26,30.34,30.18,19,4,19,0.00
2012-2-13,52.2,39.5,23.2,27.5,17.5,13.4,74,43,25,30.26,30.06,11,2,12,0.00
2012-2-14,46.6,42.5,38.1,39.0,33.5,21.9,87,72,45,30.07,29.98,10,2,17,0.00
2012-2-15,63.6,46.9,29.7,42.6,36.5,29.0,98,72,34,30.22,30.06,18,4,18,0.00
2012-2-16,55.4,49.1,45.6,53.0,42.9,37.7,99,80,68,30.17,29.96,7,1,7,0.18
2012-2-17,64.5,52.4,38.7,50.6,44.6,38.4,99,77,49,30.09,29.99,8,1,10,0.01
2012-2-18,63.7,56.1,41.3,47.1,42.6,36.1,91,62,45,30.07,29.86,8,1,14,0.03
2012-2-19,49.6,42.9,34.8,47.7,41.7,33.3,97,96,91,29.94,29.66,14,5,25,0.40
2012-2-20,52.0,39.6,29.2,36.8,30.0,21.6,99,73,31,30.27,29.94,13,2,22,0.00
2012-2-21,55.4,42.2,30.4,42.0,34.9,27.3,96,77,52,30.26,29.98,9,1,18,0.00
2012-2-22,65.6,52.8,39.3,54.1,46.6,38.0,99,81,55,29.98,29.55,11,3,25,0.14
2012-2-23,74.4,63.2,51.5,60.6,55.6,50.8,99,78,50,29.64,29.53,11,4,23,0.01
2012-2-24,72.0,62.5,43.5,65.4,50.3,18.3,95,68,23,29.92,29.49,16,6,31,0.45
2012-2-25,54.1,44.1,34.8,28.2,20.2,14.4,76,40,22,30.26,29.92,15,5,28,0.00
2012-2-26,55.7,40.8,30.6,33.5,25.8,21.9,81,58,29,30.46,30.26,10,2,22,0.00
2012-2-27,63.3,49.7,37.7,52.5,44.1,28.1,97,82,65,30.40,30.23,6,1,11,0.01
2012-2-28,67.5,54.3,38.9,50.2,45.0,38.4,98,74,44,30.36,30.20,11,2,17,0.01
2012-2-29,64.1,58.5,53.5,61.3,57.0,50.2,98,95,75,30.20,29.80,9,2,24,0.08
2012-3-1,78.3,67.3,55.6,62.3,49.1,28.7,97,60,17,29.83,29.72,11,4,21,0.07
2012-3-2,70.1,57.4,50.5,61.4,51.5,44.3,97,81,68,29.87,29.61,14,2,23,0.27
2012-3-3,63.3,56.7,51.8,60.6,44.9,22.2,98,69,30,29.75,29.56,18,3,29,1.56
2012-3-4,51.8,46.3,37.5,33.5,21.7,12.8,55,39,23,30.00,29.64,19,5,32,0.00
2012-3-5,55.7,45.7,36.5,30.3,21.8,14.9,64,41,23,30.43,29.88,17,5,29,0.00
2012-3-6,57.3,42.3,29.3,32.1,24.3,20.1,86,52,26,30.60,30.43,11,2,16,0.00
2012-3-7,64.9,52.0,41.3,50.5,41.8,26.2,83,69,51,30.57,30.36,7,1,14,0.00
2012-3-8,72.6,62.8,52.8,57.6,51.6,48.3,90,69,45,30.36,30.03,11,3,20,0.00
2012-3-9,64.9,56.4,48.1,56.8,41.0,23.7,98,62,26,30.26,30.02,17,4,26,0.53
2012-3-10,60.7,49.8,39.4,33.5,25.6,17.2,78,42,19,30.46,30.26,13,4,21,0.00
2012-3-11,65.4,50.8,37.1,48.5,36.2,28.0,79,59,35,30.52,30.36,9,2,14,0.00
2012-3-12,66.2,59.1,51.7,56.2,50.9,44.7,94,75,62,30.37,30.21,6,1,13,0.00
2012-3-13,75.4,61.7,56.7,62.3,57.7,55.3,96,88,57,30.21,30.08,8,2,14,0.00
2012-3-14,82.3,71.3,56.1,62.4,51.9,45.6,99,56,29,30.19,30.10,8,1,14,0.01
2012-3-15,84.7,68.5,51.8,56.7,51.9,46.0,95,60,29,30.20,30.10,7,1,14,0.00
2012-3-16,82.3,68.7,56.5,59.9,55.3,51.7,93,65,35,30.17,30.04,12,2,15,0.15
2012-3-17,80.7,67.9,57.0,60.0,56.8,52.7,98,71,39,30.19,30.08,9,2,15,0.01
2012-3-18,79.4,66.9,59.1,62.6,58.1,55.9,96,75,49,30.26,30.12,10,2,17,0.23
2012-3-19,84.6,69.5,55.9,63.4,57.3,52.8,98,70,34,30.16,30.03,7,1,12,0.00
2012-3-20,83.0,71.3,57.3,62.0,58.1,55.4,95,66,40,30.14,30.04,9,2,14,0.00
2012-3-21,77.9,67.6,56.5,63.3,58.3,55.1,97,74,46,30.23,30.11,8,2,17,0.00
2012-3-22,73.2,65.8,59.9,65.0,61.8,58.8,98,88,70,30.20,30.09,9,1,15,0.00
2012-3-23,78.6,66.3,60.6,68.0,63.0,60.0,99,90,64,30.11,29.91,9,1,16,0.27
2012-3-24,76.8,67.4,58.6,64.1,55.8,42.9,97,71,33,29.91,29.68,11,4,21,0.01
2012-3-25,66.6,60.1,55.3,51.6,48.6,45.4,79,66,55,29.82,29.67,13,5,25,0.01
2012-3-26,80.6,67.6,53.3,52.5,46.8,31.2,87,51,17,30.00,29.80,10,3,18,0.00
2012-3-27,70.0,59.7,51.4,51.5,40.2,31.6,74,50,32,30.26,30.00,10,3,17,0.00
2012-3-28,79.4,64.1,48.7,61.1,51.4,37.9,93,65,40,30.19,29.89,9,2,20,0.00
2012-3-29,84.6,68.7,60.7,63.8,55.7,51.6,93,66,35,29.92,29.81,15,2,21,0.15
2012-3-30,74.4,61.9,54.4,64.3,55.5,43.3,96,82,42,29.94,29.82,8,1,15,0.31
2012-3-31,77.6,65.4,57.5,65.1,60.1,55.6,98,85,53,29.85,29.70,7,1,15,0.41
2012-4-1,81.6,65.6,57.5,61.7,56.5,50.2,97,77,40,29.82,29.69,9,1,17,0.06
2012-4-2,88.9,68.9,55.9,66.2,60.2,54.2,98,78,40,29.84,29.66,7,1,14,0.04
2012-4-3,74.3,65.0,60.6,66.8,62.3,59.8,98,91,76,29.95,29.83,7,1,13,0.00
2012-4-4,84.3,67.8,56.3,65.9,61.2,55.7,99,82,44,29.87,29.62,12,1,27,0.00
2012-4-5,78.3,65.5,52.6,65.3,59.7,51.3,97,83,60,29.75,29.55,15,4,27,0.00
2012-4-6,63.4,52.8,46.8,51.4,45.2,38.5,96,78,45,30.05,29.72,13,5,26,0.00
2012-4-7,71.8,57.2,45.3,49.6,41.7,32.7,97,61,29,30.23,30.06,7,2,13,0.00
2012-4-8,78.3,63.8,48.5,52.8,45.4,38.6,91,56,28,30.11,29.92,5,1,15,0.00
2012-4-9,77.3,65.8,54.8,45.4,33.4,18.0,53,32,12,30.05,29.83,11,4,24,0.00
2012-4-10,76.0,62.3,44.6,45.1,39.6,32.2,87,45,29,29.95,29.81,12,4,28,0.00
2012-4-11,65.7,54.6,46.0,37.2,25.9,20.5,55,34,18,30.09,29.84,9,3,18,0.00
2012-4-12,63.9,49.2,33.4,40.3,28.3,22.1,100,48,23,30.21,30.08,8,2,13,0.00
2012-4-13,69.2,55.0,38.1,42.8,36.1,28.9,93,55,23,30.21,30.09,10,2,19,0.00
2012-4-14,75.5,61.6,50.9,46.8,43.3,41.2,72,54,33,30.27,30.13,7,1,15,0.00
2012-4-15,79.1,64.6,49.8,63.7,55.4,42.5,93,73,55,30.17,30.09,7,2,18,0.00
2012-4-16,80.4,69.3,59.9,63.1,59.6,56.7,90,73,50,30.16,30.07,11,2,23,0.00
2012-4-17,84.0,70.3,57.1,65.1,60.6,56.1,97,74,46,30.12,29.97,12,2,23,0.00
2012-4-18,62.4,55.9,53.2,59.9,53.7,51.0,97,93,85,30.09,30.01,13,5,20,0.00
2012-4-19,64.6,57.0,50.7,57.8,54.1,49.9,98,90,76,30.05,29.95,10,3,15,0.00
2012-4-20,71.9,61.1,52.8,60.8,56.2,52.3,99,85,64,29.99,29.81,5,2,11,0.00
2012-4-21,67.5,64.6,63.0,62.6,60.6,58.2,96,87,80,29.75,29.64,4,2,9,0.00
2012-4-22,65.5,58.1,45.7,57.8,51.8,36.7,95,80,58,29.64,29.44,10,4,21,0.00
2012-4-23,59.0,49.1,41.0,37.0,31.8,24.4,84,54,28,29.72,29.57,13,4,23,0.00
2012-4-24,65.3,57.3,39.9,41.6,34.7,25.6,72,45,24,29.83,29.72,14,5,25,0.00
2012-4-25,78.8,61.9,47.9,62.0,50.6,41.5,90,68,47,29.89,29.79,7,1,15,0.00
2012-4-26,78.1,68.3,61.3,64.8,59.6,55.3,96,75,55,29.89,29.75,10,3,25,0.00
2012-4-27,83.7,69.1,61.1,69.5,63.7,60.1,97,85,56,30.00,29.82,8,2,15,0.00
2012-4-28,69.6,64.0,57.5,63.6,57.4,51.9,99,80,63,30.11,29.97,10,3,13,0.00
2012-4-29,89.7,66.0,0.0,71.9,56.6,-79.1,98,76,50,30.12,30.03,6,1,14,0.06
2012-4-30,86.4,50.5,0.0,67.8,12.5,-79.1,86,40,48,30.16,29.98,6,1,12,0.00
2012-5-1,85.4,75.5,63.9,70.8,66.2,60.9,92,74,58,30.11,29.98,6,2,15,0.00
2012-5-2,87.4,76.9,66.6,68.0,66.8,62.7,91,72,44,30.07,29.99,4,0,7,0.00
2012-5-3,86.9,75.0,66.3,68.8,64.7,61.9,90,72,44,30.10,30.00,5,1,11,0.00
2012-5-4,84.7,73.8,66.8,67.0,65.0,62.7,94,76,49,30.04,29.90,7,2,15,0.00
2012-5-5,86.8,75.9,63.1,67.5,64.2,59.6,98,70,48,29.90,29.76,6,1,11,0.00
2012-5-6,79.2,71.8,63.1,65.8,63.2,60.2,93,75,58,29.96,29.84,11,3,18,0.00
2012-5-7,80.1,70.4,62.6,65.5,62.6,60.6,96,78,54,29.99,29.85,9,2,14,0.00
2012-5-8,81.8,71.5,66.0,69.9,65.6,61.1,97,83,58,29.90,29.75,7,2,15,0.35
2012-5-9,70.9,65.5,56.4,67.3,61.2,50.9,97,87,61,29.83,29.66,8,2,15,0.27
2012-5-10,73.8,64.1,47.9,51.9,47.6,43.9,97,60,35,29.85,29.75,7,2,16,0.00
2012-5-11,74.9,68.5,54.4,53.8,46.9,42.0,80,48,37,30.16,29.80,11,4,16,0.00
2012-5-12,74.1,63.2,56.1,61.4,55.0,50.5,94,75,61,30.28,30.16,7,1,12,0.00
2012-5-13,64.5,60.9,56.7,63.2,59.0,55.0,98,94,87,30.21,30.01,7,1,11,0.30
2012-5-14,78.7,69.4,63.8,68.9,65.3,63.2,98,88,62,30.01,29.83,6,2,13,1.56
2012-5-15,82.1,70.8,62.7,68.4,64.0,60.2,99,81,50,29.94,29.84,5,1,12,0.00
2012-5-16,81.2,71.3,61.1,67.1,63.2,59.9,97,77,54,29.92,29.83,6,1,13,0.00
2012-5-17,77.6,67.9,61.3,64.3,61.2,58.4,96,80,57,29.98,29.86,8,2,15,0.06
2012-5-18,76.0,67.9,60.9,62.4,60.8,59.1,94,79,57,30.06,29.96,9,3,18,0.00
2012-5-19,75.7,67.4,58.7,60.4,54.9,48.1,93,66,40,30.11,30.00,9,3,15,0.00
2012-5-20,80.5,69.2,57.9,59.5,54.7,50.1,91,63,36,30.09,29.97,10,3,18,0.00
2012-5-21,84.6,71.1,58.9,62.2,58.1,54.6,89,65,41,30.00,29.83,5,1,13,0.00
2012-5-22,78.8,68.3,60.1,67.8,61.8,58.0,98,81,59,29.86,29.73,9,1,21,0.67
2012-5-23,77.2,66.5,58.9,66.0,62.4,58.6,99,88,62,29.86,29.77,5,1,7,0.00
2012-5-24,85.4,76.2,64.3,68.8,64.4,61.2,92,69,45,29.95,29.82,5,2,11,0.00
2012-5-25,88.9,77.3,65.8,68.0,64.3,59.6,93,67,41,30.06,29.94,5,1,15,0.00
2012-5-26,88.1,77.9,66.8,69.8,66.6,63.6,91,70,45,30.09,29.98,11,2,16,0.00
2012-5-27,84.7,77.2,69.9,69.2,67.0,62.7,87,72,51,30.07,29.96,11,3,19,0.00
2012-5-28,82.7,76.5,68.9,70.9,69.3,67.7,96,79,63,30.02,29.91,9,2,16,0.00
2012-5-29,79.7,73.3,69.2,71.9,69.6,67.8,97,89,71,29.95,29.77,9,2,15,0.17
2012-5-30,88.7,76.0,64.4,70.0,62.0,53.2,97,66,33,29.79,29.71,8,2,13,0.01
2012-5-31,89.2,76.4,61.0,67.0,61.9,55.5,92,63,42,29.83,29.70,11,1,18,0.00
2012-6-1,79.9,70.4,63.5,68.1,64.8,56.9,97,83,62,29.81,29.67,11,2,23,0.14
2012-6-2,78.3,66.6,54.3,56.2,51.2,48.2,83,59,38,29.91,29.75,5,2,12,0.00
2012-6-3,84.4,69.0,52.1,61.0,54.5,49.0,93,63,35,29.93,29.80,7,2,16,0.00
2012-6-4,83.3,72.6,65.2,70.0,64.1,58.0,96,77,47,29.80,29.65,7,2,13,0.15
2012-6-5,76.2,67.6,62.8,63.4,61.4,58.1,97,82,58,29.83,29.67,8,1,13,0.72
2012-6-6,72.3,64.1,60.7,61.7,60.4,58.9,97,88,65,29.97,29.79,8,3,17,0.02
2012-6-7,80.0,69.0,61.2,63.8,60.3,58.3,93,76,48,30.01,29.93,6,1,9,13.68
2012-6-8,83.2,71.7,60.7,63.6,60.8,55.8,95,71,42,30.02,29.93,8,1,13,0.00
2012-6-9,83.5,70.2,62.4,66.4,62.3,59.8,93,78,49,30.04,29.97,5,1,10,0.00
2012-6-10,70.8,68.2,65.8,66.4,64.2,62.3,94,87,76,30.09,30.05,13,4,14,0.22
2012-6-11,80.0,70.5,65.0,72.4,67.8,63.5,98,92,74,30.08,29.93,7,2,7,0.39
2012-6-12,86.5,74.4,69.2,75.0,70.8,68.0,99,90,62,29.95,29.80,12,2,16,0.49
2012-6-13,85.7,76.1,65.3,71.9,68.5,64.9,99,79,54,29.92,29.85,8,2,13,0.01
2012-6-14,79.8,73.6,68.9,69.8,62.7,54.0,92,70,52,30.09,29.92,8,3,16,0.00
2012-6-15,79.8,72.2,65.6,64.6,62.0,58.7,90,71,52,30.18,30.05,9,3,17,0.00
2012-6-16,80.0,70.2,61.3,62.0,59.1,56.0,89,70,50,30.21,30.07,12,2,19,0.00
2012-6-17,84.1,72.9,61.9,65.3,60.0,56.1,86,65,48,30.13,29.95,6,1,12,0.00
2012-6-18,86.0,79.2,65.9,66.8,64.5,61.6,88,62,46,30.04,29.97,6,2,12,0.00
2012-6-19,88.5,76.7,64.3,67.6,64.5,61.3,92,68,45,30.13,30.04,5,1,10,0.00
2012-6-20,90.0,79.1,66.5,70.1,67.4,64.1,95,70,48,30.13,30.00,5,1,12,0.00
2012-6-21,91.5,80.2,68.1,72.0,68.1,65.9,93,69,45,30.03,29.86,5,1,14,0.00
2012-6-22,90.8,79.0,69.1,71.9,68.3,65.7,92,72,45,29.90,29.80,8,1,20,0.00
2012-6-23,93.2,77.6,68.5,72.6,69.1,64.7,97,77,40,29.92,29.82,8,2,15,0.00
2012-6-24,90.8,77.6,70.0,74.0,70.6,65.6,96,81,54,29.94,29.83,6,2,11,0.60
2012-6-25,90.4,78.8,69.9,75.2,71.1,68.4,97,79,54,29.87,29.65,17,1,25,0.31
2012-6-26,82.5,75.0,69.0,71.6,58.7,47.8,97,60,30,29.82,29.67,12,5,21,0.00
2012-6-27,85.7,72.7,59.7,63.2,55.2,51.3,87,57,31,29.96,29.82,8,2,13,0.00
2012-6-28,95.1,79.6,61.2,68.5,61.9,54.8,94,60,26,29.98,29.85,7,1,12,0.00
2012-6-29,103.7,86.8,66.6,72.6,65.3,58.5,95,55,25,29.86,29.73,7,1,13,0.00
2012-6-30,102.4,87.7,76.6,75.8,69.8,65.5,79,58,31,29.85,29.74,6,2,11,0.00
2012-7-1,106.4,87.5,66.4,75.6,68.8,59.8,97,61,23,30.03,29.78,19,2,40,0.78
2012-7-2,86.9,74.2,68.3,74.0,68.4,64.5,97,84,48,30.10,29.92,12,3,22,0.19
2012-7-3,96.2,81.8,71.5,74.5,70.2,66.2,95,70,40,29.97,29.86,6,1,13,0.00
2012-7-4,94.1,81.4,70.5,75.1,70.7,65.8,89,71,49,29.95,29.87,8,1,11,0.00
2012-7-5,97.5,81.5,70.8,77.6,71.7,67.9,97,75,40,29.94,29.83,10,1,19,0.66
2012-7-6,93.9,81.5,69.4,74.0,69.0,65.7,96,69,41,29.92,29.85,7,1,12,0.00
2012-7-7,94.9,83.5,71.3,76.7,72.0,69.6,95,71,46,29.98,29.87,4,1,10,0.00
2012-7-8,95.7,85.7,76.4,78.8,73.2,69.3,84,67,49,29.94,29.79,5,2,12,0.00
2012-7-9,96.1,83.3,75.0,76.5,72.8,70.1,87,72,44,29.87,29.80,8,2,19,0.01
2012-7-10,86.2,76.0,69.3,74.9,71.1,66.2,97,86,62,29.99,29.85,9,2,15,0.53
2012-7-11,84.3,73.1,68.8,73.8,69.8,67.6,99,90,64,30.07,29.95,10,2,20,0.23
2012-7-12,76.9,70.7,66.4,71.2,68.3,65.3,98,92,81,30.11,30.01,8,4,15,0.27
2012-7-13,83.3,73.0,68.9,76.6,71.1,68.0,99,94,77,30.13,30.04,4,2,9,0.14
2012-7-14,89.2,78.8,71.9,74.8,72.4,71.0,99,82,57,30.16,30.04,5,1,10,0.04
2012-7-15,89.5,78.2,70.6,75.3,72.6,70.2,99,84,56,30.17,30.02,3,1,9,0.01
2012-7-16,91.3,77.0,68.9,76.8,71.4,67.1,99,85,55,30.06,29.91,13,1,24,0.27
2012-7-17,91.4,79.2,69.4,81.0,72.2,68.4,98,81,53,29.95,29.85,8,1,23,0.44
2012-7-18,92.1,78.2,70.8,76.6,71.8,68.8,98,82,55,29.96,29.88,8,1,15,0.00
2012-7-19,91.1,79.7,72.4,76.5,71.8,69.0,96,78,56,30.00,29.89,7,1,13,0.00
2012-7-20,88.6,78.4,69.2,77.0,72.8,66.3,97,84,60,29.93,29.85,6,2,22,0.11
2012-7-21,88.3,77.2,69.2,76.0,72.7,68.2,98,87,61,30.04,29.90,8,2,15,0.05
2012-7-22,92.0,82.0,71.2,75.5,72.1,69.3,98,74,49,30.13,30.03,7,2,15,0.00
2012-7-23,79.8,75.1,71.8,76.3,71.5,70.2,95,89,82,30.12,30.00,0,0,3,0.00
2012-7-24,96.0,83.7,74.2,77.2,72.9,69.4,94,72,47,30.01,29.85,8,1,16,0.00
2012-7-25,93.7,82.6,72.9,77.3,72.0,67.9,94,72,53,29.95,29.84,9,2,16,0.00
2012-7-26,95.7,86.0,73.9,76.8,73.3,71.7,93,68,48,29.88,29.77,6,2,14,0.00
2012-7-27,83.5,81.8,81.7,73.3,72.6,72.6,74,74,71,29.83,29.81,1,0,4,0.00
2012-7-28,81.7,81.7,81.7,72.6,72.6,72.6,74,74,74,29.81,29.81,0,0,0,0.00
2012-8-2,93.7,84.4,77.3,72.5,70.8,67.9,81,65,44,29.89,29.79,6,2,15,0.00
2012-8-3,90.1,80.0,71.0,75.4,72.0,69.3,96,78,58,29.97,29.82,5,1,14,0.00
2012-8-4,84.8,76.3,72.2,75.0,71.7,67.3,95,86,67,30.13,29.97,7,1,17,0.00
2012-8-5,88.8,78.3,70.0,76.1,72.2,69.4,99,83,58,30.17,30.05,4,1,15,0.00
2012-8-6,90.0,78.1,70.8,75.1,71.7,69.4,98,82,54,30.09,29.93,6,1,17,0.00
2012-8-7,79.1,73.3,71.7,75.4,72.2,71.0,98,96,86,29.99,29.94,2,0,5,0.00
2012-8-8,87.5,76.5,69.8,76.6,71.9,68.6,99,86,65,29.97,29.89,4,1,10,0.00
2012-8-9,87.2,73.1,66.0,76.7,69.9,64.5,99,90,69,29.95,29.80,21,1,53,0.00
2012-8-10,85.3,75.6,67.7,73.4,70.8,67.4,100,86,65,29.82,29.74,6,1,13,0.00
2012-8-11,83.0,75.1,67.9,72.6,69.6,65.0,98,84,66,29.88,29.79,9,1,18,0.00
2012-8-12,85.0,74.5,63.8,69.3,65.5,61.7,96,75,47,29.97,29.88,7,1,12,0.00
2012-8-13,85.7,74.2,63.6,69.3,64.6,59.1,98,75,42,29.99,29.88,4,1,11,0.00
2012-8-14,86.1,76.5,66.5,71.8,67.9,63.1,94,76,58,29.92,29.81,7,2,16,0.00
2012-8-15,87.6,76.5,70.3,72.6,70.2,66.6,97,82,55,29.93,29.82,6,1,14,0.00
2012-8-16,84.8,75.1,63.9,68.5,65.8,62.8,98,75,53,30.00,29.89,5,1,9,0.00
2012-8-17,85.4,76.3,65.7,72.0,69.0,64.9,98,80,62,29.95,29.78,4,1,11,0.00
2012-8-18,82.0,74.2,67.2,71.7,69.0,66.0,98,85,65,29.89,29.78,11,1,19,0.00
2012-8-19,78.8,71.4,68.0,71.8,69.4,67.3,99,94,75,29.85,29.77,4,0,10,0.01
2012-8-20,83.1,72.7,65.0,69.9,66.7,62.6,99,83,54,29.92,29.81,5,1,11,0.07
2012-8-21,82.7,72.1,62.4,68.8,64.9,60.2,97,79,53,30.02,29.90,6,2,13,0.57
2012-8-22,81.9,72.4,65.2,70.0,66.2,62.9,95,82,60,30.07,29.98,6,2,12,0.00
2012-8-23,82.9,74.6,67.5,69.4,67.5,65.1,93,80,59,30.11,30.02,6,2,11,0.00
2012-8-24,82.3,74.1,65.6,67.9,65.3,58.0,95,76,44,30.10,30.02,6,2,14,0.00
2012-8-25,83.3,73.7,63.8,68.5,65.4,62.3,96,77,54,30.11,30.03,5,1,12,0.00
2012-8-26,86.3,75.0,63.2,69.4,66.1,62.2,98,76,45,30.13,30.02,7,1,12,0.00
2012-8-27,85.3,76.1,67.0,69.8,67.2,64.9,94,76,52,30.11,29.96,7,2,14,0.00
2012-8-28,83.2,75.3,70.8,75.4,72.5,68.6,98,91,72,29.98,29.90,3,0,8,0.09
2012-8-29,84.5,75.3,71.0,75.7,72.2,68.2,99,90,73,29.96,29.88,4,1,10,0.08
2012-8-30,82.1,75.7,69.7,76.8,72.2,68.8,98,89,78,30.10,29.95,2,0,7,0.18
2012-8-31,91.4,79.8,71.3,75.1,72.9,71.0,99,81,55,30.18,30.05,5,1,13,0.01
2012-9-1,93.2,81.0,72.8,74.4,72.1,67.8,97,77,45,30.10,29.97,5,1,10,0.00
2012-9-2,89.2,77.8,70.5,76.1,72.7,69.9,98,85,60,30.01,29.88,6,1,14,0.03
2012-9-3,84.5,73.6,70.2,77.1,71.8,69.2,99,94,77,29.95,29.88,8,1,19,0.49
2012-9-4,82.5,74.7,71.1,75.2,72.1,70.2,99,92,74,29.92,29.84,6,1,13,0.27
2012-9-5,85.4,75.9,70.7,75.7,72.3,70.1,99,89,68,29.92,29.82,5,1,14,0.02
2012-9-6,87.5,77.5,70.1,76.4,72.6,67.6,98,86,67,29.91,29.81,6,2,12,0.00
2012-9-7,85.8,75.9,67.9,75.3,71.5,67.0,99,87,68,29.93,29.80,6,1,14,0.00
2012-9-8,88.1,74.1,67.9,75.7,70.0,63.9,99,88,61,29.81,29.66,7,2,13,0.25
2012-9-9,78.6,70.5,63.9,63.9,59.1,53.7,87,69,45,29.97,29.75,9,2,16,0.25
2012-9-10,79.6,69.3,60.1,62.6,57.7,54.1,83,68,49,30.09,29.95,7,1,11,0.00
2012-9-11,79.2,68.1,62.6,64.5,61.0,56.9,96,79,58,30.25,30.08,7,1,16,0.00
2012-9-12,78.6,68.9,60.9,63.6,60.9,58.8,97,78,52,30.30,30.20,8,1,14,0.00
2012-9-13,76.5,67.3,58.3,62.2,59.4,56.9,96,77,54,30.30,30.19,6,2,15,0.00
2012-9-14,81.7,68.9,64.9,65.1,61.5,60.1,93,78,51,30.22,30.11,3,0,12,0.00
2012-9-15,84.7,72.1,61.5,66.7,63.3,60.6,98,77,48,30.15,30.03,8,1,13,0.00
2012-9-16,80.3,71.3,65.9,69.7,66.8,63.6,97,87,66,30.09,29.97,6,1,7,0.23
2012-9-17,76.1,70.0,67.2,72.3,68.8,66.6,99,96,88,30.03,29.79,7,2,16,0.53
2012-9-18,75.8,71.7,70.5,71.1,69.2,67.0,97,92,83,29.79,29.66,8,3,19,0.54
2012-9-19,74.9,69.7,63.1,67.4,62.7,55.2,90,79,62,30.06,29.72,8,2,16,0.54
2012-9-20,77.1,66.3,55.9,63.3,60.0,55.1,98,82,61,30.11,30.01,6,1,11,0.00
2012-9-21,81.6,69.1,58.9,68.1,62.7,58.5,99,82,55,30.05,29.93,6,1,14,0.00
2012-9-22,84.4,72.6,62.3,67.1,64.1,58.8,97,76,55,29.96,29.86,7,2,16,0.00
2012-9-23,78.2,67.9,50.9,58.3,49.1,43.8,94,54,31,30.07,29.95,6,1,12,0.00
2012-9-24,71.9,60.2,50.5,52.8,45.9,40.3,91,61,41,30.19,30.07,9,3,18,0.00
2012-9-25,78.5,62.9,49.2,61.2,55.5,47.8,96,79,52,30.19,30.13,5,1,11,0.00
2012-9-26,82.7,67.1,54.4,62.3,58.9,53.8,99,78,46,30.18,30.09,4,1,13,0.00
2012-9-27,82.0,70.0,54.5,65.1,59.1,53.9,99,72,45,30.15,30.05,3,1,9,0.00
2012-9-28,85.0,71.0,59.7,67.5,63.1,59.1,98,79,51,30.07,29.91,5,1,13,0.00
2012-9-29,78.1,68.6,64.1,68.7,64.9,61.9,97,89,69,29.97,29.79,5,1,12,0.05
2012-9-30,67.1,63.0,60.5,63.7,61.1,58.9,98,94,75,29.88,29.83,7,3,11,0.00
2012-10-1,61.4,60.6,60.1,61.1,60.2,59.8,99,99,98,29.80,29.72,10,6,16,1.86
2012-10-2,80.1,69.5,61.4,69.3,64.9,61.1,100,87,61,29.92,29.68,11,2,15,0.26
2012-10-3,75.7,67.5,62.5,65.3,63.3,61.8,98,87,66,30.15,29.92,3,0,10,0.00
2012-10-4,81.6,68.9,61.3,64.8,62.2,58.4,99,82,46,30.20,30.11,3,1,6,0.00
2012-10-5,81.2,67.7,55.1,62.8,58.7,54.3,98,75,47,30.17,29.98,5,1,10,0.00
2012-10-6,82.5,71.6,65.1,66.3,62.3,59.9,88,74,54,29.99,29.83,7,1,17,0.00
2012-10-7,66.8,60.8,55.9,61.6,57.5,52.8,96,89,79,30.07,29.88,11,4,17,0.00
2012-10-8,55.9,51.4,48.7,53.0,46.7,43.3,92,84,74,30.14,30.06,11,5,20,0.00
2012-10-9,55.8,51.2,46.6,49.7,47.6,45.8,97,88,78,30.14,30.05,6,1,9,0.00
2012-10-10,74.3,57.5,42.7,57.3,49.3,42.3,99,77,47,30.08,29.98,9,2,15,0.00
2012-10-11,69.4,59.2,44.1,52.7,48.4,43.3,97,69,47,30.26,30.05,7,1,13,0.00
2012-10-12,74.6,60.8,48.6,60.9,54.4,47.9,98,81,56,30.24,30.12,6,1,10,0.00
2012-10-13,66.2,58.1,51.8,55.2,49.2,42.2,90,73,57,30.41,30.23,13,4,19,0.00
2012-10-14,69.7,60.7,52.6,62.6,56.0,49.8,98,85,74,30.28,29.99,3,0,6,0.00
2012-10-15,77.0,66.5,54.5,66.5,56.9,42.4,98,76,30,29.99,29.72,8,2,18,0.26
2012-10-16,70.7,57.5,47.0,52.4,47.0,44.6,95,70,41,29.93,29.82,5,1,12,0.00
2012-10-17,72.9,57.8,47.1,53.9,49.3,46.3,98,77,41,29.94,29.82,6,1,11,0.00
2012-10-18,70.0,58.7,49.5,62.5,55.3,47.6,99,89,75,29.85,29.73,6,1,11,0.00
2012-10-19,70.6,58.1,46.2,57.5,45.2,30.1,99,70,24,29.76,29.67,12,2,20,0.01
2012-10-20,69.5,56.1,43.9,53.2,45.5,40.7,90,69,45,29.90,29.73,5,1,10,0.00
2012-10-21,71.2,55.8,44.0,52.0,46.6,41.6,96,74,45,30.11,29.90,4,1,9,0.00
2012-10-22,77.7,59.2,46.4,57.9,51.1,45.9,99,78,41,30.19,30.08,4,0,7,0.00
2012-10-23,78.3,61.1,46.9,56.7,52.4,46.4,99,77,40,30.16,30.05,4,1,10,0.00
2012-10-24,81.8,61.8,47.2,59.8,51.9,46.9,99,75,31,30.15,30.03,4,0,11,0.01
2012-10-25,78.6,63.3,50.7,62.2,56.2,49.3,97,79,53,30.10,30.01,7,1,12,0.00
2012-10-26,76.5,66.6,57.4,62.7,58.5,56.3,97,77,55,30.03,29.89,10,3,16,0.02
2012-10-27,73.0,65.1,58.5,60.3,57.2,51.0,87,76,60,29.90,29.66,12,4,19,0.00
2012-10-28,69.4,56.6,47.9,51.1,46.5,35.9,87,70,48,29.72,29.60,21,4,21,0.03
2012-10-29,55.9,49.0,45.3,35.9,33.4,29.5,64,55,44,29.68,29.54,27,6,27,0.00
2012-10-30,53.2,47.0,44.2,34.5,32.0,28.8,64,56,46,29.66,29.46,18,4,20,0.00
2012-10-31,62.4,51.2,43.2,35.6,30.0,20.7,65,47,24,29.76,29.63,8,3,20,0.00
2012-11-1,64.5,48.3,32.7,36.6,26.0,13.8,88,46,16,29.88,29.75,5,1,12,0.00
2012-11-2,74.4,53.9,39.1,44.7,34.8,23.0,88,50,32,29.92,29.76,7,2,19,0.00
2012-11-3,74.2,54.1,38.2,48.3,40.4,34.5,95,65,28,30.06,29.92,4,1,11,0.00
2012-11-4,67.8,55.8,48.5,53.7,46.0,38.9,97,71,50,29.96,29.85,14,2,14,0.05
2012-11-5,61.3,51.9,43.3,45.6,39.0,34.0,81,63,37,30.04,29.92,9,1,12,0.00
2012-11-6,50.1,45.9,41.1,39.2,36.5,33.2,85,70,60,30.04,29.91,13,4,18,0.03
2012-11-7,46.9,42.8,39.7,42.2,38.7,34.7,94,86,78,29.94,29.84,3,1,7,0.06
2012-11-8,64.1,50.7,35.5,38.6,32.8,26.4,91,54,26,30.09,29.94,5,1,11,0.00
2012-11-9,68.1,55.3,45.6,38.4,33.6,30.9,71,45,26,30.24,30.09,4,0,8,0.00
2012-11-10,72.8,55.9,42.5,45.4,38.5,34.4,88,56,25,30.32,30.18,5,1,11,0.00
2012-11-11,70.3,54.5,37.6,53.5,46.3,36.8,98,76,48,30.42,30.30,6,1,14,0.00
2012-11-12,70.1,61.2,54.5,62.3,58.2,52.8,98,90,74,30.31,30.11,5,1,11,0.31
2012-11-13,60.4,51.9,44.0,59.7,40.9,30.6,98,69,33,30.33,30.10,9,3,16,0.02
2012-11-14,49.9,43.8,37.0,32.5,31.1,29.4,79,61,48,30.43,30.27,13,6,19,0.00
2012-11-15,51.6,41.8,36.2,37.8,35.4,31.8,94,79,57,30.30,30.18,11,4,17,0.30
2012-11-16,57.8,43.6,32.7,39.4,34.5,30.8,94,73,39,30.32,30.21,7,1,13,0.00
2012-11-17,49.1,45.2,39.4,34.2,31.3,26.3,77,59,43,30.42,30.32,13,7,18,0.00
2012-11-18,58.6,51.0,45.9,44.8,37.1,26.0,72,59,43,30.38,30.28,15,7,22,0.00
2012-11-19,60.6,54.1,45.8,49.8,47.3,44.0,95,79,67,30.27,30.15,16,6,16,0.00
2012-11-20,64.4,50.8,42.8,46.4,44.1,41.5,97,80,48,30.16,30.00,7,2,7,0.00
2012-11-22,56.6,44.2,39.4,38.2,36.4,34.0,90,75,43,30.17,30.13,0,0,0,0.00
2012-11-23,69.8,52.0,33.6,49.5,40.4,32.2,98,68,38,30.13,29.90,6,2,14,0.00
2012-11-24,54.3,44.9,29.1,31.5,24.9,16.8,70,47,28,30.07,29.93,8,3,13,0.00
2012-11-25,55.3,39.8,24.6,27.7,21.9,18.8,90,53,27,30.16,30.01,7,2,19,0.00
2012-11-26,68.2,48.4,32.3,37.8,27.1,19.3,82,47,23,30.15,30.04,5,0,11,0.00
2012-11-27,55.8,51.6,45.8,51.6,41.9,29.1,95,71,43,30.15,30.02,7,1,12,0.00
2012-11-28,59.0,51.2,35.4,42.4,37.7,26.8,92,62,37,30.33,30.15,6,2,10,0.00
2012-11-29,59.6,42.2,29.6,41.7,33.0,24.4,95,72,45,30.43,30.30,5,1,12,0.00
2012-11-30,41.6,32.9,30.6,40.5,31.8,29.9,98,96,92,30.35,30.23,0,0,0,0.00
2012-12-1,66.9,47.1,45.4,46.6,44.3,43.7,96,91,48,30.27,30.23,2,0,5,0.00
2012-12-2,69.0,56.2,46.8,55.5,50.5,46.0,97,83,58,30.30,30.17,11,1,14,0.00
2012-12-3,73.0,59.1,44.5,55.3,50.0,44.2,99,75,48,30.24,30.14,6,1,14,0.00
2012-12-4,72.0,61.9,51.6,57.7,53.3,49.7,97,76,49,30.23,30.10,10,2,16,0.00
2012-12-5,65.3,60.2,51.5,59.9,55.4,48.2,96,84,76,30.10,30.01,7,2,14,0.04
2012-12-6,55.6,49.9,48.1,48.1,38.3,31.6,76,65,46,30.18,30.08,13,5,15,0.00
2012-12-7,56.6,49.5,42.4,47.6,43.5,37.4,97,81,66,30.11,29.92,7,1,9,0.00
2012-12-8,69.0,56.4,42.0,57.0,52.2,41.2,98,87,64,29.98,29.90,12,2,14,0.03
2012-12-9,68.3,59.3,54.4,61.0,56.9,53.6,99,92,75,30.01,29.89,6,1,12,0.01
2012-12-10,64.9,59.3,55.9,60.0,58.0,55.3,99,96,84,29.89,29.62,12,3,18,0.29
2012-12-11,59.8,50.3,44.0,58.4,42.5,35.2,95,75,58,30.05,29.64,6,2,15,0.00
2012-12-12,47.3,44.7,42.9,39.8,36.2,33.4,81,72,65,30.22,30.05,15,6,23,0.01
2012-12-13,52.5,44.1,33.5,34.5,29.3,24.7,77,57,34,30.31,30.18,16,5,21,0.00
2012-12-14,57.9,41.3,28.1,36.1,29.8,23.9,89,67,35,30.32,30.16,7,0,7,0.00
2012-12-15,60.5,47.5,36.9,42.1,36.8,32.7,90,68,42,30.18,29.99,5,0,9,0.00
2012-12-16,55.4,52.4,49.2,53.0,48.1,40.6,99,86,68,29.99,29.83,4,0,6,0.85
2012-12-17,56.2,53.9,51.8,55.2,53.3,51.3,99,98,94,29.81,29.59,13,2,14,0.15
2012-12-18,61.2,52.5,41.3,54.0,40.3,27.2,98,68,30,29.88,29.59,11,2,15,0.00
2012-12-19,67.3,51.4,39.0,44.7,37.6,30.0,94,61,40,30.01,29.86,10,2,13,0.00
2012-12-20,47.9,44.7,40.7,47.4,42.6,31.6,99,93,69,30.01,29.55,17,3,32,1.31
2012-12-21,45.3,40.0,35.6,31.5,24.2,17.2,69,54,39,29.88,29.63,20,6,25,0.00
2012-12-22,57.4,38.8,24.8,28.9,19.5,14.4,79,50,21,30.07,29.88,9,1,15,0.00
2012-12-23,57.6,41.4,26.5,35.2,26.5,19.8,85,58,29,30.09,29.95,10,1,13,0.00
2012-12-24,48.4,44.7,41.1,46.2,40.5,33.9,98,86,60,29.96,29.80,7,1,7,0.89
2012-12-25,48.8,45.8,43.7,46.9,44.9,43.1,99,97,93,30.00,29.83,11,3,15,0.06
2012-12-26,48.2,44.3,35.2,47.9,41.1,29.9,99,89,72,29.83,29.42,19,6,29,2.29
2012-12-27,53.3,38.7,26.3,35.1,30.7,25.3,97,75,45,29.99,29.70,7,1,9,0.00
2012-12-28,43.7,36.8,29.5,34.0,30.7,27.2,93,79,64,30.11,29.88,5,1,9,0.00
2012-12-29,53.9,41.8,36.0,43.4,34.8,26.1,97,78,51,30.00,29.67,12,3,20,0.32
2012-12-30,49.5,35.0,23.9,27.5,23.7,20.0,94,67,33,30.35,30.00,12,1,14,0.00
2012-12-31,51.9,41.4,26.9,30.6,27.6,24.2,93,61,37,30.33,30.05,14,2,18,0.00
2013-1-1,50.8,48.3,45.3,49.5,42.4,30.5,98,82,50,30.03,29.85,9,1,13,0.49